sensor_id;sensor_type;location;lat;lon;timestamp;temperature;humidity
29713;DHT22;16623;53.632;10.016;2023-02-15T00:01:49;4.90;99.90
29713;DHT22;16623;53.632;10.016;2023-02-15T00:04:17;5.10;99.90
29713;DHT22;16623;53.632;10.016;2023-02-15T00:06:43;5.00;99.90
29713;DHT22;16623;53.632;10.016;2023-02-15T00:09:09;5.00;99.90
29713;DHT22;16623;53.632;10.016;2023-02-15T00:11:35;5.00;99.90
29713;DHT22;16623;53.632;10.016;2023-02-15T00:14:20;5.00;99.90
29713;DHT22;16623;53.632;10.016;2023-02-15T00:16:46;5.00;99.90
29713;DHT22;16623;53.632;10.016;2023-02-15T00:19:14;4.80;99.90
29713;DHT22;16623;53.632;10.016;2023-02-15T00:21:40;5.00;99.90
29713;DHT22;16623;53.632;10.016;2023-02-15T00:24:08;5.00;99.90
29713;DHT22;16623;53.632;10.016;2023-02-15T00:26:34;5.00;99.90
29713;DHT22;16623;53.632;10.016;2023-02-15T00:31:27;5.00;99.90
29713;DHT22;16623;53.632;10.016;2023-02-15T00:33:53;5.00;99.90
29713;DHT22;16623;53.632;10.016;2023-02-15T00:36:20;5.10;99.90
29713;DHT22;16623;53.632;10.016;2023-02-15T00:38:45;5.00;99.90
29713;DHT22;16623;53.632;10.016;2023-02-15T00:41:11;5.00;99.90
29713;DHT22;16623;53.632;10.016;2023-02-15T00:43:36;5.00;99.90
29713;DHT22;16623;53.632;10.016;2023-02-15T00:46:04;5.00;99.90
29713;DHT22;16623;53.632;10.016;2023-02-15T00:48:30;5.10;99.90
29713;DHT22;16623;53.632;10.016;2023-02-15T00:50:59;5.10;99.90
29713;DHT22;16623;53.632;10.016;2023-02-15T00:53:26;5.10;99.90
29713;DHT22;16623;53.632;10.016;2023-02-15T00:55:52;5.10;99.90
29713;DHT22;16623;53.632;10.016;2023-02-15T00:58:18;5.10;99.90
29713;DHT22;16623;53.632;10.016;2023-02-15T01:00:44;5.10;99.90
29713;DHT22;16623;53.632;10.016;2023-02-15T01:03:11;5.00;99.90
29713;DHT22;16623;53.632;10.016;2023-02-15T01:05:37;5.00;99.90
29713;DHT22;16623;53.632;10.016;2023-02-15T01:08:06;5.20;99.90
29713;DHT22;16623;53.632;10.016;2023-02-15T01:10:33;5.20;99.90
29713;DHT22;16623;53.632;10.016;2023-02-15T01:13:03;5.20;99.90
29713;DHT22;16623;53.632;10.016;2023-02-15T01:15:29;5.20;99.90
29713;DHT22;16623;53.632;10.016;2023-02-15T01:17:54;5.10;99.90
29713;DHT22;16623;53.632;10.016;2023-02-15T01:20:22;5.20;99.90
29713;DHT22;16623;53.632;10.016;2023-02-15T01:22:49;5.20;99.90
29713;DHT22;16623;53.632;10.016;2023-02-15T01:25:19;5.20;99.90
29713;DHT22;16623;53.632;10.016;2023-02-15T01:27:45;5.30;99.90
29713;DHT22;16623;53.632;10.016;2023-02-15T01:30:11;5.40;99.90
29713;DHT22;16623;53.632;10.016;2023-02-15T01:32:36;5.20;99.90
29713;DHT22;16623;53.632;10.016;2023-02-15T01:35:02;7.30;99.90
29713;DHT22;16623;53.632;10.016;2023-02-15T01:37:30;5.10;99.90
29713;DHT22;16623;53.632;10.016;2023-02-15T01:39:55;5.10;99.90
29713;DHT22;16623;53.632;10.016;2023-02-15T01:42:22;5.10;99.90
29713;DHT22;16623;53.632;10.016;2023-02-15T01:44:52;5.20;99.90
29713;DHT22;16623;53.632;10.016;2023-02-15T01:47:32;5.30;99.90
29713;DHT22;16623;53.632;10.016;2023-02-15T01:52:38;5.20;99.90
29713;DHT22;16623;53.632;10.016;2023-02-15T01:55:05;5.20;99.90
29713;DHT22;16623;53.632;10.016;2023-02-15T01:57:31;5.20;99.90
29713;DHT22;16623;53.632;10.016;2023-02-15T02:00:00;5.10;99.90
29713;DHT22;16623;53.632;10.016;2023-02-15T02:02:28;5.10;99.90
29713;DHT22;16623;53.632;10.016;2023-02-15T02:04:56;5.10;99.90
29713;DHT22;16623;53.632;10.016;2023-02-15T02:07:27;5.10;99.90
29713;DHT22;16623;53.632;10.016;2023-02-15T02:09:53;5.10;99.90
29713;DHT22;16623;53.632;10.016;2023-02-15T02:12:19;5.10;99.90
29713;DHT22;16623;53.632;10.016;2023-02-15T02:17:59;5.10;99.90
29713;DHT22;16623;53.632;10.016;2023-02-15T02:23:51;5.10;99.90
29713;DHT22;16623;53.632;10.016;2023-02-15T02:26:35;5.10;99.90
29713;DHT22;16623;53.632;10.016;2023-02-15T02:29:17;5.00;99.90
29713;DHT22;16623;53.632;10.016;2023-02-15T02:32:15;5.00;99.90
29713;DHT22;16623;53.632;10.016;2023-02-15T02:37:34;5.10;99.90
29713;DHT22;16623;53.632;10.016;2023-02-15T02:43:52;5.20;99.90
29713;DHT22;16623;53.632;10.016;2023-02-15T02:46:02;5.10;99.90
29713;DHT22;16623;53.632;10.016;2023-02-15T02:48:32;5.20;99.90
29713;DHT22;16623;53.632;10.016;2023-02-15T02:50:58;5.20;99.90
29713;DHT22;16623;53.632;10.016;2023-02-15T02:53:24;5.30;99.90
29713;DHT22;16623;53.632;10.016;2023-02-15T02:55:55;5.20;99.90
29713;DHT22;16623;53.632;10.016;2023-02-15T02:58:39;5.10;99.90
29713;DHT22;16623;53.632;10.016;2023-02-15T03:01:18;5.20;99.90
29713;DHT22;16623;53.632;10.016;2023-02-15T03:03:58;5.10;99.90
29713;DHT22;16623;53.632;10.016;2023-02-15T03:06:40;5.20;99.90
29713;DHT22;16623;53.632;10.016;2023-02-15T03:09:34;5.00;99.90
29713;DHT22;16623;53.632;10.016;2023-02-15T03:12:18;5.20;99.90
29713;DHT22;16623;53.632;10.016;2023-02-15T03:14:57;5.10;99.90
29713;DHT22;16623;53.632;10.016;2023-02-15T03:17:27;5.10;99.90
29713;DHT22;16623;53.632;10.016;2023-02-15T03:19:57;5.10;99.90
29713;DHT22;16623;53.632;10.016;2023-02-15T03:22:41;5.00;99.90
29713;DHT22;16623;53.632;10.016;2023-02-15T03:25:17;5.00;99.90
29713;DHT22;16623;53.632;10.016;2023-02-15T03:27:48;5.10;99.90
29713;DHT22;16623;53.632;10.016;2023-02-15T03:30:18;5.10;99.90
29713;DHT22;16623;53.632;10.016;2023-02-15T03:32:47;5.10;99.90
29713;DHT22;16623;53.632;10.016;2023-02-15T03:35:14;5.00;99.90
29713;DHT22;16623;53.632;10.016;2023-02-15T03:37:55;5.00;99.90
29713;DHT22;16623;53.632;10.016;2023-02-15T03:40:34;5.00;99.90
29713;DHT22;16623;53.632;10.016;2023-02-15T03:43:40;5.00;99.90
29713;DHT22;16623;53.632;10.016;2023-02-15T03:46:22;4.90;99.90
29713;DHT22;16623;53.632;10.016;2023-02-15T03:48:57;5.10;99.90
29713;DHT22;16623;53.632;10.016;2023-02-15T03:51:31;5.10;99.90
29713;DHT22;16623;53.632;10.016;2023-02-15T03:54:12;5.10;99.90
29713;DHT22;16623;53.632;10.016;2023-02-15T03:56:42;5.10;99.90
29713;DHT22;16623;53.632;10.016;2023-02-15T03:59:27;5.00;99.90
29713;DHT22;16623;53.632;10.016;2023-02-15T04:02:23;5.00;99.90
29713;DHT22;16623;53.632;10.016;2023-02-15T04:04:50;5.10;99.90
29713;DHT22;16623;53.632;10.016;2023-02-15T04:07:15;5.00;99.90
29713;DHT22;16623;53.632;10.016;2023-02-15T04:12:26;4.90;99.90
29713;DHT22;16623;53.632;10.016;2023-02-15T04:17:37;4.90;99.90
29713;DHT22;16623;53.632;10.016;2023-02-15T04:20:03;5.00;99.90
29713;DHT22;16623;53.632;10.016;2023-02-15T04:22:47;5.00;99.90
29713;DHT22;16623;53.632;10.016;2023-02-15T04:25:31;5.00;99.90
29713;DHT22;16623;53.632;10.016;2023-02-15T04:27:57;5.00;99.90
29713;DHT22;16623;53.632;10.016;2023-02-15T04:30:24;5.00;99.90
29713;DHT22;16623;53.632;10.016;2023-02-15T04:32:50;5.00;99.90
29713;DHT22;16623;53.632;10.016;2023-02-15T04:35:16;5.00;99.90
29713;DHT22;16623;53.632;10.016;2023-02-15T04:37:43;5.00;99.90
29713;DHT22;16623;53.632;10.016;2023-02-15T04:40:11;5.00;99.90
29713;DHT22;16623;53.632;10.016;2023-02-15T04:42:37;5.00;99.90
29713;DHT22;16623;53.632;10.016;2023-02-15T04:45:03;5.10;99.90
29713;DHT22;16623;53.632;10.016;2023-02-15T04:47:28;5.00;99.90
29713;DHT22;16623;53.632;10.016;2023-02-15T04:49:54;5.00;99.90
29713;DHT22;16623;53.632;10.016;2023-02-15T04:52:20;5.00;99.90
29713;DHT22;16623;53.632;10.016;2023-02-15T04:54:45;5.00;99.90
29713;DHT22;16623;53.632;10.016;2023-02-15T04:59:37;4.80;99.90
29713;DHT22;16623;53.632;10.016;2023-02-15T05:02:03;4.90;99.90
29713;DHT22;16623;53.632;10.016;2023-02-15T05:04:28;4.80;99.90
29713;DHT22;16623;53.632;10.016;2023-02-15T05:06:54;4.80;99.90
29713;DHT22;16623;53.632;10.016;2023-02-15T05:11:46;4.80;99.90
29713;DHT22;16623;53.632;10.016;2023-02-15T05:14:12;4.80;99.90
29713;DHT22;16623;53.632;10.016;2023-02-15T05:16:37;4.70;99.90
29713;DHT22;16623;53.632;10.016;2023-02-15T05:21:29;4.70;99.90
29713;DHT22;16623;53.632;10.016;2023-02-15T05:26:23;4.60;99.90
29713;DHT22;16623;53.632;10.016;2023-02-15T05:29:08;4.60;99.90
29713;DHT22;16623;53.632;10.016;2023-02-15T05:31:34;4.60;99.90
29713;DHT22;16623;53.632;10.016;2023-02-15T05:34:01;4.60;99.90
29713;DHT22;16623;53.632;10.016;2023-02-15T05:36:26;4.60;99.90
29713;DHT22;16623;53.632;10.016;2023-02-15T05:38:53;4.70;99.90
29713;DHT22;16623;53.632;10.016;2023-02-15T05:41:18;4.60;99.90
29713;DHT22;16623;53.632;10.016;2023-02-15T05:43:44;4.60;99.90
29713;DHT22;16623;53.632;10.016;2023-02-15T05:46:10;4.70;99.90
29713;DHT22;16623;53.632;10.016;2023-02-15T05:48:35;4.60;99.90
29713;DHT22;16623;53.632;10.016;2023-02-15T05:51:04;4.60;99.90
29713;DHT22;16623;53.632;10.016;2023-02-15T05:53:31;4.50;99.90
29713;DHT22;16623;53.632;10.016;2023-02-15T05:55:58;4.50;99.90
29713;DHT22;16623;53.632;10.016;2023-02-15T05:58:29;4.60;99.90
29713;DHT22;16623;53.632;10.016;2023-02-15T06:00:55;4.60;99.90
29713;DHT22;16623;53.632;10.016;2023-02-15T06:03:21;4.60;99.90
29713;DHT22;16623;53.632;10.016;2023-02-15T06:05:47;4.50;99.90
29713;DHT22;16623;53.632;10.016;2023-02-15T06:08:12;4.50;99.90
29713;DHT22;16623;53.632;10.016;2023-02-15T06:10:38;4.50;99.90
29713;DHT22;16623;53.632;10.016;2023-02-15T06:15:31;4.50;99.90
29713;DHT22;16623;53.632;10.016;2023-02-15T06:17:56;4.50;99.90
29713;DHT22;16623;53.632;10.016;2023-02-15T06:20:22;4.50;99.90
29713;DHT22;16623;53.632;10.016;2023-02-15T06:22:47;4.50;99.90
29713;DHT22;16623;53.632;10.016;2023-02-15T06:25:13;4.50;99.90
29713;DHT22;16623;53.632;10.016;2023-02-15T06:27:41;4.40;99.90
29713;DHT22;16623;53.632;10.016;2023-02-15T06:30:08;4.40;99.90
29713;DHT22;16623;53.632;10.016;2023-02-15T06:32:34;4.40;99.90
29713;DHT22;16623;53.632;10.016;2023-02-15T06:35:00;4.50;99.90
29713;DHT22;16623;53.632;10.016;2023-02-15T06:37:25;4.50;99.90
29713;DHT22;16623;53.632;10.016;2023-02-15T06:39:51;4.50;99.90
29713;DHT22;16623;53.632;10.016;2023-02-15T06:42:16;4.50;99.90
29713;DHT22;16623;53.632;10.016;2023-02-15T06:44:43;4.50;99.90
29713;DHT22;16623;53.632;10.016;2023-02-15T06:47:09;4.50;99.90
29713;DHT22;16623;53.632;10.016;2023-02-15T06:49:34;4.50;99.90
29713;DHT22;16623;53.632;10.016;2023-02-15T06:52:00;4.50;99.90
29713;DHT22;16623;53.632;10.016;2023-02-15T06:54:25;4.40;99.90
29713;DHT22;16623;53.632;10.016;2023-02-15T06:56:51;4.50;99.90
29713;DHT22;16623;53.632;10.016;2023-02-15T06:59:16;4.30;99.90
29713;DHT22;16623;53.632;10.016;2023-02-15T07:01:42;4.40;99.90
29713;DHT22;16623;53.632;10.016;2023-02-15T07:04:07;4.30;99.90
29713;DHT22;16623;53.632;10.016;2023-02-15T07:06:33;4.30;99.90
29713;DHT22;16623;53.632;10.016;2023-02-15T07:08:59;4.20;99.90
29713;DHT22;16623;53.632;10.016;2023-02-15T07:11:25;4.30;99.90
29713;DHT22;16623;53.632;10.016;2023-02-15T07:14:09;4.20;99.90
29713;DHT22;16623;53.632;10.016;2023-02-15T07:16:34;4.20;99.90
29713;DHT22;16623;53.632;10.016;2023-02-15T07:19:00;4.30;99.90
29713;DHT22;16623;53.632;10.016;2023-02-15T07:21:26;4.40;99.90
29713;DHT22;16623;53.632;10.016;2023-02-15T07:23:51;4.40;99.90
29713;DHT22;16623;53.632;10.016;2023-02-15T07:26:17;4.50;99.90
29713;DHT22;16623;53.632;10.016;2023-02-15T07:28:42;4.40;99.90
29713;DHT22;16623;53.632;10.016;2023-02-15T07:31:08;4.40;99.90
29713;DHT22;16623;53.632;10.016;2023-02-15T07:33:34;4.30;99.90
29713;DHT22;16623;53.632;10.016;2023-02-15T07:36:02;4.20;99.90
29713;DHT22;16623;53.632;10.016;2023-02-15T07:38:31;4.30;99.90
29713;DHT22;16623;53.632;10.016;2023-02-15T07:40:58;4.20;99.90
29713;DHT22;16623;53.632;10.016;2023-02-15T07:43:24;4.30;99.90
29713;DHT22;16623;53.632;10.016;2023-02-15T07:45:50;4.30;99.90
29713;DHT22;16623;53.632;10.016;2023-02-15T07:48:15;4.30;99.90
29713;DHT22;16623;53.632;10.016;2023-02-15T07:50:41;4.30;99.90
29713;DHT22;16623;53.632;10.016;2023-02-15T07:53:06;4.30;99.90
29713;DHT22;16623;53.632;10.016;2023-02-15T07:55:32;4.10;99.90
29713;DHT22;16623;53.632;10.016;2023-02-15T07:57:57;4.20;99.90
29713;DHT22;16623;53.632;10.016;2023-02-15T08:00:23;4.10;99.90
29713;DHT22;16623;53.632;10.016;2023-02-15T08:02:54;4.10;99.90
29713;DHT22;16623;53.632;10.016;2023-02-15T08:05:43;4.10;99.90
29713;DHT22;16623;53.632;10.016;2023-02-15T08:08:10;4.10;99.90
29713;DHT22;16623;53.632;10.016;2023-02-15T08:13:53;4.10;99.90
29713;DHT22;16623;53.632;10.016;2023-02-15T08:18:57;4.20;99.90
29713;DHT22;16623;53.632;10.016;2023-02-15T08:21:25;4.20;99.90
29713;DHT22;16623;53.632;10.016;2023-02-15T08:23:52;4.10;99.90
29713;DHT22;16623;53.632;10.016;2023-02-15T08:26:18;4.00;99.90
29713;DHT22;16623;53.632;10.016;2023-02-15T08:28:43;4.00;99.90
29713;DHT22;16623;53.632;10.016;2023-02-15T08:31:11;4.00;99.90
29713;DHT22;16623;53.632;10.016;2023-02-15T08:33:39;4.10;99.90
29713;DHT22;16623;53.632;10.016;2023-02-15T08:36:26;4.10;99.90
29713;DHT22;16623;53.632;10.016;2023-02-15T08:38:52;4.10;99.90
29713;DHT22;16623;53.632;10.016;2023-02-15T08:41:28;4.00;99.90
29713;DHT22;16623;53.632;10.016;2023-02-15T08:43:59;4.00;99.90
29713;DHT22;16623;53.632;10.016;2023-02-15T08:46:27;4.10;99.90
29713;DHT22;16623;53.632;10.016;2023-02-15T08:48:53;4.10;99.90
29713;DHT22;16623;53.632;10.016;2023-02-15T08:51:22;4.20;99.90
29713;DHT22;16623;53.632;10.016;2023-02-15T08:53:51;4.20;99.90
29713;DHT22;16623;53.632;10.016;2023-02-15T08:56:28;3.90;99.90
29713;DHT22;16623;53.632;10.016;2023-02-15T08:58:55;4.00;99.90
29713;DHT22;16623;53.632;10.016;2023-02-15T09:01:23;4.00;99.90
29713;DHT22;16623;53.632;10.016;2023-02-15T09:03:56;4.00;99.90
29713;DHT22;16623;53.632;10.016;2023-02-15T09:06:22;4.10;99.90
29713;DHT22;16623;53.632;10.016;2023-02-15T09:08:49;4.10;99.90
29713;DHT22;16623;53.632;10.016;2023-02-15T09:11:17;4.10;99.90
29713;DHT22;16623;53.632;10.016;2023-02-15T09:13:48;4.30;99.90
29713;DHT22;16623;53.632;10.016;2023-02-15T09:16:14;4.40;99.90
29713;DHT22;16623;53.632;10.016;2023-02-15T09:18:42;4.40;99.90
29713;DHT22;16623;53.632;10.016;2023-02-15T09:21:13;4.40;99.90
29713;DHT22;16623;53.632;10.016;2023-02-15T09:23:40;4.40;99.90
29713;DHT22;16623;53.632;10.016;2023-02-15T09:26:08;4.50;99.90
29713;DHT22;16623;53.632;10.016;2023-02-15T09:28:34;4.60;99.90
29713;DHT22;16623;53.632;10.016;2023-02-15T09:31:12;4.40;99.90
29713;DHT22;16623;53.632;10.016;2023-02-15T09:33:39;4.10;99.90
29713;DHT22;16623;53.632;10.016;2023-02-15T09:36:12;4.20;99.90
29713;DHT22;16623;53.632;10.016;2023-02-15T09:38:38;4.40;99.90
29713;DHT22;16623;53.632;10.016;2023-02-15T09:44:10;4.70;99.90
29713;DHT22;16623;53.632;10.016;2023-02-15T09:54:44;4.70;99.90
29713;DHT22;16623;53.632;10.016;2023-02-15T09:57:26;4.90;99.90
29713;DHT22;16623;53.632;10.016;2023-02-15T09:59:59;4.90;99.90
29713;DHT22;16623;53.632;10.016;2023-02-15T10:03:03;5.00;99.90
29713;DHT22;16623;53.632;10.016;2023-02-15T10:09:02;5.10;99.90
29713;DHT22;16623;53.632;10.016;2023-02-15T10:12:29;5.10;99.90
29713;DHT22;16623;53.632;10.016;2023-02-15T10:23:07;5.00;99.90
29713;DHT22;16623;53.632;10.016;2023-02-15T10:28:23;5.20;99.90
29713;DHT22;16623;53.632;10.016;2023-02-15T10:30:54;5.10;99.90
29713;DHT22;16623;53.632;10.016;2023-02-15T10:33:41;5.20;99.90
29713;DHT22;16623;53.632;10.016;2023-02-15T10:36:32;5.10;99.90
29713;DHT22;16623;53.632;10.016;2023-02-15T10:44:46;5.30;99.90
29713;DHT22;16623;53.632;10.016;2023-02-15T10:56:39;5.60;99.90
29713;DHT22;16623;53.632;10.016;2023-02-15T10:59:22;5.60;99.90
29713;DHT22;16623;53.632;10.016;2023-02-15T11:05:00;5.90;99.90
29713;DHT22;16623;53.632;10.016;2023-02-15T11:07:38;5.90;99.90
29713;DHT22;16623;53.632;10.016;2023-02-15T11:12:41;5.70;99.90
29713;DHT22;16623;53.632;10.016;2023-02-15T11:18:02;5.90;99.90
29713;DHT22;16623;53.632;10.016;2023-02-15T11:20:32;5.80;99.90
29713;DHT22;16623;53.632;10.016;2023-02-15T11:22:59;7.10;99.90
29713;DHT22;16623;53.632;10.016;2023-02-15T11:25:30;5.80;99.90
29713;DHT22;16623;53.632;10.016;2023-02-15T11:27:56;5.80;99.90
29713;DHT22;16623;53.632;10.016;2023-02-15T11:30:25;5.70;99.90
29713;DHT22;16623;53.632;10.016;2023-02-15T11:32:54;5.70;99.90
29713;DHT22;16623;53.632;10.016;2023-02-15T11:35:32;5.90;99.90
29713;DHT22;16623;53.632;10.016;2023-02-15T11:38:18;6.00;99.90
29713;DHT22;16623;53.632;10.016;2023-02-15T11:43:40;6.10;99.90
29713;DHT22;16623;53.632;10.016;2023-02-15T11:46:11;6.30;99.90
29713;DHT22;16623;53.632;10.016;2023-02-15T11:48:37;6.20;99.90
29713;DHT22;16623;53.632;10.016;2023-02-15T11:51:03;6.20;99.90
29713;DHT22;16623;53.632;10.016;2023-02-15T11:53:32;6.10;99.90
29713;DHT22;16623;53.632;10.016;2023-02-15T11:56:00;6.20;99.90
29713;DHT22;16623;53.632;10.016;2023-02-15T11:58:58;6.30;99.90
29713;DHT22;16623;53.632;10.016;2023-02-15T12:01:30;6.40;99.90
29713;DHT22;16623;53.632;10.016;2023-02-15T12:06:46;6.20;99.90
29713;DHT22;16623;53.632;10.016;2023-02-15T12:11:54;6.40;99.90
29713;DHT22;16623;53.632;10.016;2023-02-15T12:14:51;6.50;99.90
29713;DHT22;16623;53.632;10.016;2023-02-15T12:17:18;6.60;99.90
29713;DHT22;16623;53.632;10.016;2023-02-15T12:19:46;6.70;99.90
29713;DHT22;16623;53.632;10.016;2023-02-15T12:22:23;6.80;99.90
29713;DHT22;16623;53.632;10.016;2023-02-15T12:24:52;6.80;99.90
29713;DHT22;16623;53.632;10.016;2023-02-15T12:27:29;6.80;99.90
29713;DHT22;16623;53.632;10.016;2023-02-15T12:30:13;6.90;99.90
29713;DHT22;16623;53.632;10.016;2023-02-15T12:32:56;7.00;99.90
29713;DHT22;16623;53.632;10.016;2023-02-15T12:35:31;7.00;99.90
29713;DHT22;16623;53.632;10.016;2023-02-15T12:38:21;7.10;99.90
29713;DHT22;16623;53.632;10.016;2023-02-15T12:41:04;7.10;99.90
29713;DHT22;16623;53.632;10.016;2023-02-15T12:43:37;7.10;99.90
29713;DHT22;16623;53.632;10.016;2023-02-15T12:46:23;7.20;99.90
29713;DHT22;16623;53.632;10.016;2023-02-15T12:49:18;7.30;99.90
29713;DHT22;16623;53.632;10.016;2023-02-15T12:52:00;7.30;99.90
29713;DHT22;16623;53.632;10.016;2023-02-15T12:54:35;7.40;99.90
29713;DHT22;16623;53.632;10.016;2023-02-15T12:57:22;7.50;99.90
29713;DHT22;16623;53.632;10.016;2023-02-15T12:59:56;7.60;99.90
29713;DHT22;16623;53.632;10.016;2023-02-15T13:02:28;7.80;99.90
29713;DHT22;16623;53.632;10.016;2023-02-15T13:04:56;8.00;99.90
29713;DHT22;16623;53.632;10.016;2023-02-15T13:07:24;8.20;99.90
29713;DHT22;16623;53.632;10.016;2023-02-15T13:09:54;8.30;99.90
29713;DHT22;16623;53.632;10.016;2023-02-15T13:12:25;8.10;99.90
29713;DHT22;16623;53.632;10.016;2023-02-15T13:14:56;8.20;99.90
29713;DHT22;16623;53.632;10.016;2023-02-15T13:17:30;8.30;99.90
29713;DHT22;16623;53.632;10.016;2023-02-15T13:20:19;8.50;99.90
29713;DHT22;16623;53.632;10.016;2023-02-15T13:23:00;8.50;99.90
29713;DHT22;16623;53.632;10.016;2023-02-15T13:25:29;8.50;99.90
29713;DHT22;16623;53.632;10.016;2023-02-15T13:28:00;8.60;99.90
29713;DHT22;16623;53.632;10.016;2023-02-15T13:30:34;8.60;99.90
29713;DHT22;16623;53.632;10.016;2023-02-15T13:33:26;8.50;99.90
29713;DHT22;16623;53.632;10.016;2023-02-15T13:36:09;8.50;99.90
29713;DHT22;16623;53.632;10.016;2023-02-15T13:44:52;8.50;99.90
29713;DHT22;16623;53.632;10.016;2023-02-15T13:50:43;8.70;99.90
29713;DHT22;16623;53.632;10.016;2023-02-15T14:07:32;8.60;99.90
29713;DHT22;16623;53.632;10.016;2023-02-15T14:12:40;8.70;99.90
29713;DHT22;16623;53.632;10.016;2023-02-15T14:20:45;8.70;99.90
29713;DHT22;16623;53.632;10.016;2023-02-15T14:26:01;8.80;99.90
29713;DHT22;16623;53.632;10.016;2023-02-15T14:28:51;8.90;99.90
29713;DHT22;16623;53.632;10.016;2023-02-15T14:31:29;8.90;99.90
29713;DHT22;16623;53.632;10.016;2023-02-15T14:33:56;8.90;99.90
29713;DHT22;16623;53.632;10.016;2023-02-15T14:36:23;8.90;99.90
29713;DHT22;16623;53.632;10.016;2023-02-15T14:39:08;8.90;99.90
29713;DHT22;16623;53.632;10.016;2023-02-15T14:42:12;8.90;99.90
29713;DHT22;16623;53.632;10.016;2023-02-15T14:44:47;8.90;99.90
29713;DHT22;16623;53.632;10.016;2023-02-15T14:47:18;8.80;99.90
29713;DHT22;16623;53.632;10.016;2023-02-15T14:49:45;8.70;99.90
29713;DHT22;16623;53.632;10.016;2023-02-15T14:52:13;8.70;99.90
29713;DHT22;16623;53.632;10.016;2023-02-15T15:05:34;8.50;99.90
29713;DHT22;16623;53.632;10.016;2023-02-15T15:08:02;8.50;99.90
29713;DHT22;16623;53.632;10.016;2023-02-15T15:10:45;8.50;99.90
29713;DHT22;16623;53.632;10.016;2023-02-15T15:13:34;8.50;99.90
29713;DHT22;16623;53.632;10.016;2023-02-15T15:22:27;8.50;99.90
29713;DHT22;16623;53.632;10.016;2023-02-15T15:24:54;8.50;99.90
29713;DHT22;16623;53.632;10.016;2023-02-15T15:40:41;8.30;99.90
29713;DHT22;16623;53.632;10.016;2023-02-15T15:43:23;8.20;99.90
29713;DHT22;16623;53.632;10.016;2023-02-15T15:48:35;8.20;99.90
29713;DHT22;16623;53.632;10.016;2023-02-15T15:51:27;8.10;99.90
29713;DHT22;16623;53.632;10.016;2023-02-15T15:53:54;8.20;99.90
29713;DHT22;16623;53.632;10.016;2023-02-15T15:56:26;8.20;99.90
29713;DHT22;16623;53.632;10.016;2023-02-15T15:59:04;8.10;99.90
29713;DHT22;16623;53.632;10.016;2023-02-15T16:01:41;8.00;99.90
29713;DHT22;16623;53.632;10.016;2023-02-15T16:04:13;7.90;99.90
29713;DHT22;16623;53.632;10.016;2023-02-15T16:06:39;7.90;99.90
29713;DHT22;16623;53.632;10.016;2023-02-15T16:09:23;7.70;99.90
29713;DHT22;16623;53.632;10.016;2023-02-15T16:11:58;7.70;99.90
29713;DHT22;16623;53.632;10.016;2023-02-15T16:14:37;7.60;99.90
29713;DHT22;16623;53.632;10.016;2023-02-15T16:17:14;7.60;99.90
29713;DHT22;16623;53.632;10.016;2023-02-15T16:19:42;7.50;99.90
29713;DHT22;16623;53.632;10.016;2023-02-15T16:22:21;7.40;99.90
29713;DHT22;16623;53.632;10.016;2023-02-15T16:27:35;7.30;99.90
29713;DHT22;16623;53.632;10.016;2023-02-15T16:32:52;7.20;99.90
29713;DHT22;16623;53.632;10.016;2023-02-15T16:35:20;7.10;99.90
29713;DHT22;16623;53.632;10.016;2023-02-15T16:37:46;7.00;99.90
29713;DHT22;16623;53.632;10.016;2023-02-15T16:40:28;7.00;99.90
29713;DHT22;16623;53.632;10.016;2023-02-15T16:43:02;6.90;99.90
29713;DHT22;16623;53.632;10.016;2023-02-15T16:45:32;6.90;99.90
29713;DHT22;16623;53.632;10.016;2023-02-15T16:48:01;6.90;99.90
29713;DHT22;16623;53.632;10.016;2023-02-15T16:50:33;6.80;99.90
29713;DHT22;16623;53.632;10.016;2023-02-15T16:53:01;6.80;99.90
29713;DHT22;16623;53.632;10.016;2023-02-15T16:55:30;6.80;99.90
29713;DHT22;16623;53.632;10.016;2023-02-15T16:58:04;6.70;99.90
29713;DHT22;16623;53.632;10.016;2023-02-15T17:00:34;6.70;99.90
29713;DHT22;16623;53.632;10.016;2023-02-15T17:03:04;6.60;99.90
29713;DHT22;16623;53.632;10.016;2023-02-15T17:05:51;6.60;99.90
29713;DHT22;16623;53.632;10.016;2023-02-15T17:08:34;6.60;99.90
29713;DHT22;16623;53.632;10.016;2023-02-15T17:11:04;6.50;99.90
29713;DHT22;16623;53.632;10.016;2023-02-15T17:13:29;6.60;99.90
29713;DHT22;16623;53.632;10.016;2023-02-15T17:18:25;6.40;99.90
29713;DHT22;16623;53.632;10.016;2023-02-15T17:20:54;7.80;99.90
29713;DHT22;16623;53.632;10.016;2023-02-15T17:23:33;6.30;99.90
29713;DHT22;16623;53.632;10.016;2023-02-15T17:26:02;6.20;99.90
29713;DHT22;16623;53.632;10.016;2023-02-15T17:28:35;6.30;99.90
29713;DHT22;16623;53.632;10.016;2023-02-15T17:31:06;6.30;99.90
29713;DHT22;16623;53.632;10.016;2023-02-15T17:36:17;6.30;99.90
29713;DHT22;16623;53.632;10.016;2023-02-15T17:39:18;6.30;99.90
29713;DHT22;16623;53.632;10.016;2023-02-15T17:41:44;6.20;99.90
29713;DHT22;16623;53.632;10.016;2023-02-15T17:44:10;6.10;99.90
29713;DHT22;16623;53.632;10.016;2023-02-15T17:46:39;6.10;99.90
29713;DHT22;16623;53.632;10.016;2023-02-15T17:49:06;6.20;99.90
29713;DHT22;16623;53.632;10.016;2023-02-15T17:51:32;6.10;99.90
29713;DHT22;16623;53.632;10.016;2023-02-15T17:54:00;6.10;99.90
29713;DHT22;16623;53.632;10.016;2023-02-15T17:56:44;6.10;99.90
29713;DHT22;16623;53.632;10.016;2023-02-15T17:59:10;6.10;99.90
29713;DHT22;16623;53.632;10.016;2023-02-15T18:01:46;6.10;99.90
29713;DHT22;16623;53.632;10.016;2023-02-15T18:04:31;6.10;99.90
29713;DHT22;16623;53.632;10.016;2023-02-15T18:07:17;6.00;99.90
29713;DHT22;16623;53.632;10.016;2023-02-15T18:10:03;6.00;99.90
29713;DHT22;16623;53.632;10.016;2023-02-15T18:12:47;6.00;99.90
29713;DHT22;16623;53.632;10.016;2023-02-15T18:15:14;6.00;99.90
29713;DHT22;16623;53.632;10.016;2023-02-15T18:17:43;7.70;99.90
29713;DHT22;16623;53.632;10.016;2023-02-15T18:20:22;5.90;99.90
29713;DHT22;16623;53.632;10.016;2023-02-15T18:22:50;5.80;99.90
29713;DHT22;16623;53.632;10.016;2023-02-15T18:25:17;5.80;99.90
29713;DHT22;16623;53.632;10.016;2023-02-15T18:27:43;5.80;99.90
29713;DHT22;16623;53.632;10.016;2023-02-15T18:30:17;5.80;99.90
29713;DHT22;16623;53.632;10.016;2023-02-15T18:32:44;5.80;99.90
29713;DHT22;16623;53.632;10.016;2023-02-15T18:35:21;5.80;99.90
29713;DHT22;16623;53.632;10.016;2023-02-15T18:37:48;5.70;99.90
29713;DHT22;16623;53.632;10.016;2023-02-15T18:40:16;5.70;99.90
29713;DHT22;16623;53.632;10.016;2023-02-15T18:42:42;5.70;99.90
29713;DHT22;16623;53.632;10.016;2023-02-15T18:47:47;5.60;99.90
29713;DHT22;16623;53.632;10.016;2023-02-15T18:50:15;5.60;99.90
29713;DHT22;16623;53.632;10.016;2023-02-15T18:52:43;5.60;99.90
29713;DHT22;16623;53.632;10.016;2023-02-15T18:55:19;5.60;99.90
29713;DHT22;16623;53.632;10.016;2023-02-15T18:57:46;5.60;99.90